createdAt,value
2023-02-16T00:00:30.038Z,6.28
2023-02-16T00:03:15.238Z,5.38
2023-02-16T00:05:59.610Z,5.35
2023-02-16T00:08:43.057Z,5.82
2023-02-16T00:11:47.643Z,6.53
2023-02-16T00:14:30.409Z,7.88
2023-02-16T00:17:13.590Z,9.15
2023-02-16T00:19:56.367Z,6.57
2023-02-16T00:22:40.476Z,8.70
2023-02-16T00:25:23.251Z,7.88
2023-02-16T00:28:12.206Z,7.03
2023-02-16T00:30:55.138Z,8.25
2023-02-16T00:33:38.038Z,12.27
2023-02-16T00:36:20.915Z,13.32
2023-02-16T00:39:05.038Z,12.05
2023-02-16T00:41:52.017Z,14.23
2023-02-16T00:44:37.879Z,14.80
2023-02-16T00:47:26.346Z,14.98
2023-02-16T00:50:17.109Z,15.70
2023-02-16T00:53:03.281Z,11.82
2023-02-16T00:55:47.591Z,10.57
2023-02-16T00:58:31.835Z,11.45
2023-02-16T01:01:16.823Z,11.50
2023-02-16T01:04:06.793Z,13.23
2023-02-16T01:07:07.419Z,10.60
2023-02-16T01:10:07.854Z,9.80
2023-02-16T01:12:52.036Z,9.93
2023-02-16T01:15:34.983Z,12.13
2023-02-16T01:18:19.464Z,11.10
2023-02-16T01:21:02.554Z,9.85
2023-02-16T01:23:46.388Z,11.98
2023-02-16T01:26:30.625Z,11.05
2023-02-16T01:29:17.715Z,8.20
2023-02-16T01:32:00.605Z,6.40
2023-02-16T01:34:43.533Z,8.88
2023-02-16T01:37:26.343Z,8.38
2023-02-16T01:40:21.669Z,7.97
2023-02-16T01:43:10.582Z,8.82
2023-02-16T01:46:00.492Z,7.10
2023-02-16T01:48:43.381Z,7.60
2023-02-16T01:51:32.360Z,7.78
2023-02-16T01:54:28.386Z,9.43
2023-02-16T01:57:24.196Z,7.25
2023-02-16T02:00:14.242Z,6.22
2023-02-16T02:03:21.540Z,7.25
2023-02-16T02:06:03.549Z,6.07
2023-02-16T02:08:52.445Z,7.13
2023-02-16T02:11:39.726Z,8.65
2023-02-16T02:14:28.068Z,6.75
2023-02-16T02:17:14.480Z,7.82
2023-02-16T02:20:06.842Z,9.60
2023-02-16T02:23:33.045Z,7.03
2023-02-16T02:26:57.073Z,8.98
2023-02-16T02:30:06.814Z,8.40
2023-02-16T02:33:12.726Z,7.95
2023-02-16T02:36:09.938Z,7.22
2023-02-16T02:39:04.380Z,8.13
2023-02-16T02:42:07.323Z,8.68
2023-02-16T02:45:05.503Z,8.55
2023-02-16T02:47:49.332Z,9.63
2023-02-16T02:50:40.272Z,9.32
2023-02-16T02:53:24.440Z,6.57
2023-02-16T02:56:27.415Z,8.73
2023-02-16T02:59:29.830Z,10.63
2023-02-16T03:02:14.082Z,5.28
2023-02-16T03:04:58.798Z,5.55
2023-02-16T03:07:50.121Z,6.93
2023-02-16T03:10:54.512Z,6.70
2023-02-16T03:13:40.669Z,5.77
2023-02-16T03:16:28.985Z,5.45
2023-02-16T03:19:32.262Z,5.45
2023-02-16T03:22:32.579Z,4.75
2023-02-16T03:25:33.821Z,4.53
2023-02-16T03:28:37.150Z,5.65
2023-02-16T03:31:23.494Z,4.75
2023-02-16T03:34:08.927Z,5.55
2023-02-16T03:36:58.436Z,4.30
2023-02-16T03:39:55.222Z,6.30
2023-02-16T03:42:38.031Z,6.70
2023-02-16T03:45:22.262Z,8.25
2023-02-16T03:48:05.605Z,6.30
2023-02-16T03:50:49.897Z,5.07
2023-02-16T03:53:32.841Z,5.82
2023-02-16T03:56:15.639Z,5.65
2023-02-16T03:58:58.579Z,5.45
2023-02-16T04:01:41.470Z,5.80
2023-02-16T04:04:24.369Z,4.97
2023-02-16T04:07:08.591Z,4.80
2023-02-16T04:09:51.408Z,5.47
2023-02-16T04:12:39.060Z,5.63
2023-02-16T04:15:24.584Z,6.15
2023-02-16T04:18:07.437Z,5.93
2023-02-16T04:20:50.348Z,6.85
2023-02-16T04:23:34.540Z,4.85
2023-02-16T04:26:17.376Z,4.22
2023-02-16T04:29:00.430Z,5.53
2023-02-16T04:31:43.334Z,5.50
2023-02-16T04:34:26.319Z,8.10
2023-02-16T04:37:09.160Z,7.07
2023-02-16T04:39:53.335Z,5.78
2023-02-16T04:42:36.169Z,7.43
2023-02-16T04:45:19.117Z,6.80
2023-02-16T04:48:01.937Z,5.68
2023-02-16T04:50:44.779Z,8.15
2023-02-16T04:53:27.572Z,7.07
2023-02-16T04:56:12.706Z,5.40
2023-02-16T04:58:56.632Z,4.55
2023-02-16T05:01:40.349Z,4.55
2023-02-16T05:04:23.264Z,5.38
2023-02-16T05:07:06.121Z,6.30
2023-02-16T05:09:48.915Z,5.20
2023-02-16T05:12:50.541Z,4.68
2023-02-16T05:15:33.665Z,5.20
2023-02-16T05:18:16.486Z,5.72
2023-02-16T05:21:16.691Z,5.35
2023-02-16T05:23:59.821Z,5.97
2023-02-16T05:26:42.650Z,5.57
2023-02-16T05:29:26.857Z,5.45
2023-02-16T05:32:10.060Z,7.70
2023-02-16T05:34:52.873Z,6.07
2023-02-16T05:37:35.703Z,5.75
2023-02-16T05:40:18.649Z,7.85
2023-02-16T05:43:01.501Z,6.05
2023-02-16T05:45:45.701Z,4.32
2023-02-16T05:48:28.515Z,5.72
2023-02-16T05:51:11.322Z,6.68
2023-02-16T05:53:54.334Z,6.00
2023-02-16T05:56:37.496Z,6.43
2023-02-16T05:59:20.872Z,5.30
2023-02-16T06:02:05.174Z,4.72
2023-02-16T06:04:47.991Z,5.65
2023-02-16T06:07:30.829Z,5.72
2023-02-16T06:10:13.611Z,4.72
2023-02-16T06:12:56.417Z,6.40
2023-02-16T06:15:39.503Z,5.63
2023-02-16T06:18:24.322Z,6.80
2023-02-16T06:21:07.131Z,7.47
2023-02-16T06:23:50.392Z,9.23
2023-02-16T06:26:33.322Z,10.73
2023-02-16T06:29:16.142Z,10.63
2023-02-16T06:31:59.156Z,13.07
2023-02-16T06:34:43.350Z,11.07
2023-02-16T06:37:26.149Z,13.70
2023-02-16T06:40:11.018Z,13.32
2023-02-16T06:42:53.880Z,11.05
2023-02-16T06:45:36.705Z,9.93
2023-02-16T06:48:19.574Z,11.18
2023-02-16T06:51:03.908Z,12.20
2023-02-16T06:53:46.878Z,12.77
2023-02-16T06:56:29.662Z,9.45
2023-02-16T06:59:13.177Z,7.43
2023-02-16T07:01:55.987Z,7.47
2023-02-16T07:04:38.834Z,10.43
2023-02-16T07:07:24.027Z,11.43
2023-02-16T07:10:08.456Z,12.52
2023-02-16T07:12:51.325Z,11.68
2023-02-16T07:15:34.133Z,10.77
2023-02-16T07:18:16.957Z,10.60
2023-02-16T07:21:00.316Z,12.68
2023-02-16T07:23:45.392Z,17.60
2023-02-16T07:26:28.326Z,17.25
2023-02-16T07:29:11.143Z,18.70
2023-02-16T07:31:56.540Z,15.13
2023-02-16T07:34:39.892Z,12.60
2023-02-16T07:37:22.668Z,12.05
2023-02-16T07:40:08.326Z,10.02
2023-02-16T07:42:51.163Z,9.30
2023-02-16T07:45:34.226Z,8.68
2023-02-16T07:48:18.477Z,9.05
2023-02-16T07:51:01.819Z,7.45
2023-02-16T07:53:44.689Z,8.05
2023-02-16T07:56:30.662Z,9.82
2023-02-16T07:59:16.313Z,10.23
2023-02-16T08:01:59.240Z,11.45
2023-02-16T08:04:42.363Z,8.88
2023-02-16T08:07:25.262Z,8.88
2023-02-16T08:10:09.543Z,9.45
2023-02-16T08:12:53.706Z,7.93
2023-02-16T08:15:37.458Z,8.82
2023-02-16T08:18:20.250Z,6.72
2023-02-16T08:21:13.788Z,10.10
2023-02-16T08:23:59.601Z,11.15
2023-02-16T08:26:44.780Z,10.07
2023-02-16T08:29:28.938Z,9.55
2023-02-16T08:32:13.055Z,8.60
2023-02-16T08:34:57.380Z,9.90
2023-02-16T08:37:41.441Z,8.10
2023-02-16T08:40:24.941Z,9.93
2023-02-16T08:43:07.711Z,10.68
2023-02-16T08:45:52.008Z,9.93
2023-02-16T08:48:35.582Z,11.65
2023-02-16T08:51:20.891Z,8.70
2023-02-16T08:54:07.131Z,9.13
2023-02-16T08:56:50.806Z,16.40
2023-02-16T08:59:34.975Z,48.10
2023-02-16T09:02:19.322Z,54.47
2023-02-16T09:05:02.173Z,37.03
2023-02-16T09:07:45.140Z,29.55
2023-02-16T09:10:28.014Z,22.70
2023-02-16T09:13:14.823Z,20.63
2023-02-16T09:16:04.347Z,13.88
2023-02-16T09:18:49.218Z,12.38
2023-02-16T09:21:33.357Z,10.80
2023-02-16T09:24:16.453Z,12.45
2023-02-16T09:26:59.444Z,12.98
2023-02-16T09:29:43.853Z,13.20
2023-02-16T09:32:29.445Z,14.50
2023-02-16T09:35:13.574Z,13.40
2023-02-16T09:37:57.740Z,11.43
2023-02-16T09:40:40.602Z,13.45
2023-02-16T09:43:35.709Z,10.77
2023-02-16T09:46:22.683Z,11.27
2023-02-16T09:49:06.488Z,9.68
2023-02-16T09:51:55.781Z,14.57
2023-02-16T09:54:43.852Z,11.15
2023-02-16T09:57:41.288Z,11.23
2023-02-16T10:00:32.432Z,13.60
2023-02-16T10:03:39.478Z,16.63
2023-02-16T10:06:44.186Z,16.80
2023-02-16T10:09:30.070Z,14.27
2023-02-16T10:12:19.449Z,12.95
2023-02-16T10:15:08.229Z,12.77
2023-02-16T10:17:56.703Z,11.88
2023-02-16T10:20:43.928Z,13.25
2023-02-16T10:23:41.562Z,15.10
2023-02-16T10:26:33.248Z,12.88
2023-02-16T10:29:18.016Z,15.65
2023-02-16T10:32:12.139Z,16.50
2023-02-16T10:35:10.873Z,15.27
2023-02-16T10:38:02.339Z,13.88
2023-02-16T10:40:55.096Z,16.17
2023-02-16T10:43:46.582Z,15.95
2023-02-16T10:46:33.461Z,16.58
2023-02-16T10:49:18.298Z,13.30
2023-02-16T10:52:03.756Z,12.38
2023-02-16T10:54:47.006Z,16.42
2023-02-16T10:57:32.884Z,17.63
2023-02-16T11:00:23.029Z,18.65
2023-02-16T11:03:12.956Z,15.88
2023-02-16T11:05:56.099Z,15.50
2023-02-16T11:08:49.981Z,19.02
2023-02-16T11:11:38.122Z,20.15
2023-02-16T11:14:24.209Z,17.35
2023-02-16T11:17:12.594Z,15.35
2023-02-16T11:20:01.425Z,17.83
2023-02-16T11:22:44.811Z,17.38
2023-02-16T11:25:28.212Z,15.70
2023-02-16T11:28:12.402Z,14.38
2023-02-16T11:31:01.604Z,14.00
2023-02-16T11:33:57.410Z,15.85
2023-02-16T11:36:43.220Z,15.15
2023-02-16T11:39:30.784Z,16.45
2023-02-16T11:42:24.893Z,14.85
2023-02-16T11:45:10.217Z,16.93
2023-02-16T11:47:55.844Z,15.60
2023-02-16T11:50:41.989Z,17.67
2023-02-16T11:53:27.029Z,13.07
2023-02-16T11:56:29.262Z,15.13
2023-02-16T11:59:19.171Z,14.40
2023-02-16T12:02:28.940Z,16.55
2023-02-16T12:05:25.134Z,16.20
2023-02-16T12:08:28.931Z,16.20
2023-02-16T12:11:25.482Z,16.75
2023-02-16T12:14:24.957Z,15.27
2023-02-16T12:17:19.377Z,16.33
2023-02-16T12:20:14.936Z,15.63
2023-02-16T12:23:05.622Z,19.48
2023-02-16T12:26:02.442Z,18.48
2023-02-16T12:28:55.455Z,19.20
2023-02-16T12:31:55.887Z,19.55
2023-02-16T12:34:50.998Z,18.92
2023-02-16T12:37:41.581Z,19.70
2023-02-16T12:40:38.433Z,18.77
2023-02-16T12:43:33.766Z,16.63
2023-02-16T12:46:23.979Z,19.20
2023-02-16T12:49:14.209Z,18.50
2023-02-16T12:52:05.320Z,17.30
2023-02-16T12:54:52.636Z,17.83
2023-02-16T12:57:36.829Z,20.17
2023-02-16T13:00:27.055Z,20.70
2023-02-16T13:03:25.044Z,17.98
2023-02-16T13:06:18.976Z,18.27
2023-02-16T13:09:12.490Z,16.60
2023-02-16T13:12:02.324Z,16.85
2023-02-16T13:14:50.052Z,14.50
2023-02-16T13:17:40.257Z,17.23
2023-02-16T13:20:24.930Z,18.95
2023-02-16T13:26:50.562Z,15.73
2023-02-16T13:30:06.056Z,16.85
2023-02-16T13:33:04.272Z,16.90
2023-02-16T13:36:19.577Z,16.67
2023-02-16T13:39:21.505Z,14.07
2023-02-16T13:42:32.932Z,17.23
2023-02-16T13:45:19.342Z,18.83
2023-02-16T13:48:03.551Z,17.80
2023-02-16T13:50:47.838Z,17.92
2023-02-16T13:53:36.224Z,15.65
2023-02-16T13:56:23.849Z,16.17
2023-02-16T13:59:59.338Z,17.00
2023-02-16T14:03:04.655Z,17.33
2023-02-16T14:08:32.163Z,15.70
2023-02-16T14:11:14.985Z,14.85
2023-02-16T14:13:57.838Z,15.10
2023-02-16T14:16:40.637Z,16.08
2023-02-16T14:19:27.065Z,15.18
2023-02-16T14:22:12.658Z,15.70
2023-02-16T14:24:58.733Z,14.55
2023-02-16T14:27:44.958Z,15.27
2023-02-16T14:30:32.205Z,15.95
2023-02-16T14:33:23.985Z,16.88
2023-02-16T14:36:15.904Z,15.75
2023-02-16T14:39:00.316Z,14.52
2023-02-16T14:41:43.497Z,13.60
2023-02-16T14:44:41.519Z,13.20
2023-02-16T14:47:36.379Z,12.55
2023-02-16T14:50:32.824Z,17.30
2023-02-16T14:53:37.323Z,15.27
2023-02-16T14:56:35.463Z,14.03
2023-02-16T14:59:31.576Z,12.27
2023-02-16T15:02:31.736Z,14.38
2023-02-16T15:05:18.858Z,11.57
2023-02-16T15:08:11.279Z,11.35
2023-02-16T15:10:58.468Z,11.55
2023-02-16T15:13:42.866Z,11.05
2023-02-16T15:16:25.820Z,25.70
2023-02-16T15:19:13.345Z,26.33
2023-02-16T15:22:09.532Z,19.02
2023-02-16T15:24:57.390Z,17.20
2023-02-16T15:27:42.303Z,17.23
2023-02-16T15:30:26.376Z,17.40
2023-02-16T15:33:16.072Z,15.85
2023-02-16T15:36:00.843Z,16.63
2023-02-16T15:38:55.469Z,15.73
2023-02-16T15:41:40.407Z,18.55
2023-02-16T15:44:34.295Z,18.83
2023-02-16T15:47:22.555Z,17.80
2023-02-16T15:50:14.324Z,15.13
2023-02-16T15:52:57.130Z,14.15
2023-02-16T15:55:44.589Z,13.77
2023-02-16T15:58:27.889Z,12.85
2023-02-16T16:01:13.970Z,12.00
2023-02-16T16:03:58.643Z,10.25
2023-02-16T16:06:41.937Z,10.32
2023-02-16T16:09:27.680Z,12.68
2023-02-16T16:12:14.353Z,11.63
2023-02-16T16:14:59.597Z,13.40
2023-02-16T16:17:43.715Z,15.85
2023-02-16T16:20:35.098Z,13.20
2023-02-16T16:23:27.003Z,12.02
2023-02-16T16:26:21.013Z,15.77
2023-02-16T16:29:04.652Z,12.52
2023-02-16T16:31:54.057Z,13.80
2023-02-16T16:34:40.683Z,12.43
2023-02-16T16:37:28.482Z,11.55
2023-02-16T16:40:23.842Z,11.60
2023-02-16T16:43:17.389Z,10.60
2023-02-16T16:46:14.322Z,11.50
2023-02-16T16:49:03.346Z,12.00
2023-02-16T16:51:53.555Z,13.82
2023-02-16T16:54:36.547Z,12.43
2023-02-16T16:57:20.269Z,13.68
2023-02-16T17:00:03.399Z,12.50
2023-02-16T17:02:47.190Z,12.95
2023-02-16T17:05:30.125Z,13.33
2023-02-16T17:08:14.223Z,13.80
2023-02-16T17:10:57.272Z,13.90
2023-02-16T17:13:40.338Z,13.88
2023-02-16T17:16:27.033Z,12.98
2023-02-16T17:19:12.925Z,13.35
2023-02-16T17:21:55.795Z,12.48
2023-02-16T17:24:40.361Z,13.60
2023-02-16T17:30:06.931Z,10.68
2023-02-16T17:32:49.765Z,11.18
2023-02-16T17:35:33.001Z,13.45
2023-02-16T17:38:20.042Z,10.43
2023-02-16T17:41:04.293Z,12.98
2023-02-16T17:43:47.078Z,11.57
2023-02-16T17:46:31.583Z,11.77
2023-02-16T17:49:16.152Z,10.48
2023-02-16T17:51:59.093Z,8.95
2023-02-16T17:54:41.885Z,9.70
2023-02-16T17:57:26.218Z,10.52
2023-02-16T18:00:16.942Z,12.25
2023-02-16T18:02:59.739Z,12.73
2023-02-16T18:05:42.773Z,12.57
2023-02-16T18:08:25.587Z,13.80
2023-02-16T18:11:08.368Z,11.98
2023-02-16T18:13:52.544Z,15.77
2023-02-16T18:16:35.427Z,13.90
2023-02-16T18:19:19.416Z,11.85
2023-02-16T18:22:02.392Z,15.25
2023-02-16T18:24:45.342Z,12.05
2023-02-16T18:27:29.446Z,12.10
2023-02-16T18:30:15.427Z,11.25
2023-02-16T18:32:58.546Z,14.32
2023-02-16T18:35:41.610Z,10.48
2023-02-16T18:38:25.113Z,12.63
2023-02-16T18:41:08.201Z,14.25
2023-02-16T18:43:50.974Z,13.70
2023-02-16T18:46:35.107Z,13.57
2023-02-16T18:49:17.918Z,14.77
2023-02-16T18:52:00.701Z,16.02
2023-02-16T18:54:43.523Z,15.73
2023-02-16T18:57:26.369Z,15.80
2023-02-16T19:00:11.369Z,16.30
2023-02-16T19:02:56.922Z,18.67
2023-02-16T19:05:39.754Z,15.70
2023-02-16T19:08:22.537Z,18.42
2023-02-16T19:11:05.771Z,17.30
2023-02-16T19:13:49.563Z,20.60
2023-02-16T19:16:32.477Z,19.05
2023-02-16T19:19:16.638Z,14.38
2023-02-16T19:21:59.434Z,16.60
2023-02-16T19:24:42.489Z,14.52
2023-02-16T19:27:25.298Z,17.58
2023-02-16T19:30:09.907Z,18.67
2023-02-16T19:35:36.689Z,12.02
2023-02-16T19:38:19.495Z,10.70
2023-02-16T19:41:02.307Z,12.85
2023-02-16T19:43:45.827Z,12.77
2023-02-16T19:46:29.488Z,11.40
2023-02-16T19:49:15.107Z,12.17
2023-02-16T19:52:02.334Z,12.68
2023-02-16T19:54:45.188Z,15.02
2023-02-16T19:57:28.026Z,13.63
2023-02-16T20:00:14.109Z,14.68
2023-02-16T20:02:57.096Z,12.05
2023-02-16T20:05:40.058Z,12.63
2023-02-16T20:08:24.246Z,12.77
2023-02-16T20:11:08.469Z,12.60
2023-02-16T20:13:52.520Z,12.02
2023-02-16T20:16:35.922Z,12.98
2023-02-16T20:19:19.029Z,11.90
2023-02-16T20:22:01.815Z,11.30
2023-02-16T20:24:45.994Z,10.05
2023-02-16T20:27:29.500Z,11.48
2023-02-16T20:30:17.790Z,12.60
2023-02-16T20:33:01.025Z,19.17
2023-02-16T20:35:43.982Z,15.68
2023-02-16T20:38:26.751Z,15.63
2023-02-16T20:41:11.017Z,17.15
2023-02-16T20:43:53.845Z,12.05
2023-02-16T20:46:37.561Z,12.07
2023-02-16T20:49:20.351Z,14.70
2023-02-16T20:52:03.549Z,15.80
2023-02-16T20:54:46.317Z,19.00
2023-02-16T20:57:30.501Z,12.07
2023-02-16T21:00:20.196Z,14.98
2023-02-16T21:03:03.035Z,11.07
2023-02-16T21:05:45.877Z,13.68
2023-02-16T21:08:28.782Z,14.20
2023-02-16T21:11:11.970Z,11.90
2023-02-16T21:13:57.644Z,13.75
2023-02-16T21:16:41.807Z,13.80
2023-02-16T21:19:24.665Z,13.82
2023-02-16T21:22:07.519Z,13.65
2023-02-16T21:24:50.313Z,12.63
2023-02-16T21:27:33.165Z,13.57
2023-02-16T21:30:17.586Z,14.88
2023-02-16T21:33:00.411Z,11.95
2023-02-16T21:35:43.206Z,11.48
2023-02-16T21:38:25.998Z,12.32
2023-02-16T21:41:28.688Z,19.33
2023-02-16T21:44:13.235Z,33.67
2023-02-16T21:46:57.646Z,27.52
2023-02-16T21:49:39.967Z,53.90
2023-02-16T21:52:22.794Z,51.13
2023-02-16T21:55:23.593Z,42.17
2023-02-16T21:58:07.974Z,34.47
2023-02-16T22:00:52.886Z,25.73
2023-02-16T22:03:37.439Z,23.15
2023-02-16T22:09:06.114Z,17.80
2023-02-16T22:11:49.385Z,36.08
2023-02-16T22:14:33.214Z,27.30
2023-02-16T22:17:16.052Z,16.25
2023-02-16T22:20:00.178Z,15.25
2023-02-16T22:22:43.498Z,16.80
2023-02-16T22:25:26.282Z,13.68
2023-02-16T22:28:09.738Z,18.52
2023-02-16T22:30:52.563Z,17.70
2023-02-16T22:33:36.044Z,17.08
2023-02-16T22:36:20.220Z,15.25
2023-02-16T22:39:03.255Z,15.35
2023-02-16T22:41:46.384Z,16.85
2023-02-16T22:44:29.144Z,16.67
2023-02-16T22:47:11.982Z,15.13
2023-02-16T22:49:54.753Z,19.98
2023-02-16T22:52:38.894Z,21.70
2023-02-16T22:55:21.657Z,21.85
2023-02-16T22:58:04.465Z,23.13
2023-02-16T23:00:47.981Z,20.25
2023-02-16T23:03:31.222Z,23.98
2023-02-16T23:06:15.458Z,25.50
2023-02-16T23:09:02.513Z,27.92
2023-02-16T23:11:45.673Z,27.08
2023-02-16T23:14:29.310Z,27.95
2023-02-16T23:17:12.172Z,25.83
2023-02-16T23:19:54.981Z,24.17
2023-02-16T23:22:37.768Z,23.00
2023-02-16T23:25:34.342Z,19.98
2023-02-16T23:28:17.524Z,19.90
2023-02-16T23:31:00.437Z,20.95
2023-02-16T23:33:43.498Z,18.55
2023-02-16T23:36:26.299Z,21.15
2023-02-16T23:39:11.731Z,23.35
2023-02-16T23:41:56.752Z,22.60
2023-02-16T23:44:39.496Z,23.13
2023-02-16T23:47:22.728Z,32.45
2023-02-16T23:50:06.433Z,29.25
2023-02-16T23:52:49.470Z,24.37
2023-02-16T23:55:32.198Z,22.52
2023-02-16T23:58:16.350Z,20.77
